Time;durP1;ratioP1;P1;durP2;ratioP2;P2;SDS_P1;SDS_P2;PMS_P1;PMS_P2;Temp;Humidity;BMP_temperature;BMP_pressure;BME280_temperature;BME280_humidity;BME280_pressure;Samples;Min_cycle;Max_cycle;Signal;HPM_P1;HPM_P2
2021/03/27 00:00:40;;;;;;;6.63;5.97;;;12.30;99.90;;;;;;5082495;28;20414;-73
2021/03/27 00:03:13;;;;;;;14.50;7.07;;;12.30;99.90;;;;;;5080855;28;20446;-73
2021/03/27 00:05:57;;;;;;;13.87;6.30;;;12.30;99.90;;;;;;5081940;28;20890;-73
2021/03/27 00:08:38;;;;;;;8.17;4.80;;;12.30;99.90;;;;;;5081710;28;20438;-73
2021/03/27 00:11:16;;;;;;;9.13;5.90;;;12.20;99.90;;;;;;5083364;28;20425;-74
2021/03/27 00:13:51;;;;;;;5.70;5.10;;;12.20;99.90;;;;;;5083568;28;20485;-73
2021/03/27 00:16:30;;;;;;;6.93;4.97;;;12.30;99.90;;;;;;5082640;28;20807;-73
2021/03/27 00:19:03;;;;;;;7.00;6.17;;;12.30;99.90;;;;;;5086599;28;20428;-72
2021/03/27 00:21:43;;;;;;;7.30;5.77;;;12.30;99.90;;;;;;5082369;28;20443;-76
2021/03/27 00:24:29;;;;;;;5.60;4.67;;;12.20;99.90;;;;;;5079652;28;20449;-73
2021/03/27 00:27:01;;;;;;;5.10;4.60;;;12.30;99.90;;;;;;5085277;28;20514;-73
2021/03/27 00:29:43;;;;;;;7.90;5.00;;;12.30;99.90;;;;;;5082737;28;20438;-73
2021/03/27 00:32:20;;;;;;;5.90;4.30;;;12.30;99.90;;;;;;5082094;28;20476;-72
2021/03/27 00:34:57;;;;;;;5.33;4.63;;;12.30;99.90;;;;;;5084033;28;20476;-73
2021/03/27 00:37:26;;;;;;;5.33;4.10;;;12.40;99.90;;;;;;5083933;28;20494;-73
2021/03/27 00:39:58;;;;;;;5.20;4.37;;;12.30;99.90;;;;;;5083141;28;20421;-73
2021/03/27 00:42:36;;;;;;;4.70;4.30;;;12.30;99.90;;;;;;5081300;28;20449;-74
2021/03/27 00:45:10;;;;;;;5.40;4.20;;;12.30;99.90;;;;;;5086641;28;20460;-74
2021/03/27 00:47:39;;;;;;;7.30;4.40;;;12.20;99.90;;;;;;5084521;28;20425;-73
2021/03/27 00:50:07;;;;;;;4.90;4.13;;;12.20;99.90;;;;;;5084387;28;20434;-73
2021/03/27 00:52:44;;;;;;;5.90;4.17;;;12.20;99.90;;;;;;5080233;28;20862;-72
2021/03/27 00:55:15;;;;;;;6.03;5.20;;;12.10;99.90;;;;;;5082308;28;20462;-72
2021/03/27 00:57:47;;;;;;;8.70;5.10;;;12.00;99.90;;;;;;5080511;28;20420;-74
2021/03/27 01:00:24;;;;;;;5.73;4.20;;;12.00;99.90;;;;;;5084629;28;20482;-72
2021/03/27 01:02:57;;;;;;;5.10;4.10;;;12.00;99.90;;;;;;5079671;28;20450;-73
2021/03/27 01:05:26;;;;;;;6.20;3.20;;;12.00;99.90;;;;;;5077414;28;20461;-74
2021/03/27 01:07:53;;;;;;;4.67;4.27;;;12.00;99.90;;;;;;5083844;28;20428;-72
2021/03/27 01:10:31;;;;;;;4.87;3.90;;;12.00;99.90;;;;;;5083007;28;20451;-73
2021/03/27 01:13:05;;;;;;;4.00;3.70;;;12.00;99.90;;;;;;5083494;28;20554;-72
2021/03/27 01:15:36;;;;;;;4.67;3.90;;;12.00;99.90;;;;;;5082350;28;20463;-72
2021/03/27 01:18:07;;;;;;;4.17;3.43;;;12.00;99.90;;;;;;5080994;28;20421;-76
2021/03/27 01:20:41;;;;;;;5.57;4.47;;;12.00;99.90;;;;;;5079702;28;20420;-72
2021/03/27 01:23:08;;;;;;;5.23;4.40;;;11.90;99.90;;;;;;5088898;28;20445;-72
2021/03/27 01:25:35;;;;;;;4.50;4.10;;;11.90;99.90;;;;;;5080944;28;20430;-72
2021/03/27 01:28:19;;;;;;;5.37;4.40;;;11.80;99.90;;;;;;5084189;28;20424;-73
2021/03/27 01:30:44;;;;;;;8.93;4.47;;;11.80;99.90;;;;;;5082035;28;20427;-74
2021/03/27 01:33:35;;;;;;;4.40;4.00;;;11.80;99.90;;;;;;5080821;28;20473;-72
2021/03/27 01:36:19;;;;;;;4.33;4.03;;;11.80;99.90;;;;;;5080558;28;20176;-73
2021/03/27 01:39:08;;;;;;;5.97;3.50;;;11.70;99.90;;;;;;5081377;28;20750;-76
2021/03/27 01:41:38;;;;;;;3.57;3.27;;;11.70;99.90;;;;;;5076276;28;20446;-73
2021/03/27 01:44:21;;;;;;;3.77;3.30;;;11.60;99.90;;;;;;5079829;28;20416;-73
2021/03/27 01:46:53;;;;;;;3.57;3.27;;;11.50;99.90;;;;;;5081844;28;20424;-73
2021/03/27 01:49:46;;;;;;;5.83;4.10;;;11.50;99.90;;;;;;5082291;28;20433;-73
2021/03/27 01:52:12;;;;;;;4.33;3.87;;;11.40;99.90;;;;;;5079685;28;20452;-73
2021/03/27 01:54:40;;;;;;;5.00;4.50;;;11.20;99.90;;;;;;5083097;28;20791;-73
2021/03/27 01:57:24;;;;;;;5.43;4.73;;;11.10;99.90;;;;;;5080017;28;20242;-72
2021/03/27 02:00:04;;;;;;;8.50;4.47;;;11.00;99.90;;;;;;5081935;28;20427;-73
2021/03/27 02:02:40;;;;;;;7.00;5.03;;;10.80;99.90;;;;;;5078317;28;20478;-75
2021/03/27 02:05:15;;;;;;;5.80;5.20;;;10.70;99.90;;;;;;5077920;28;20824;-73
2021/03/27 02:07:44;;;;;;;6.57;5.10;;;10.60;99.90;;;;;;5080404;28;20479;-75
2021/03/27 02:10:20;;;;;;;6.33;5.20;;;10.50;99.90;;;;;;5082643;28;20433;-73
2021/03/27 02:13:01;;;;;;;6.43;4.60;;;10.40;99.90;;;;;;5080595;28;20456;-72
2021/03/27 02:15:45;;;;;;;6.93;5.27;;;10.30;99.90;;;;;;5080758;28;20398;-72
2021/03/27 02:19:02;;;;;;;7.87;5.83;;;10.30;99.90;;;;;;5094163;28;20456;-74
2021/03/27 02:21:36;;;;;;;7.20;5.67;;;10.20;99.90;;;;;;5055621;28;20567;-74
2021/03/27 02:24:18;;;;;;;6.00;5.40;;;10.10;99.90;;;;;;5079593;28;20439;-73
2021/03/27 02:27:29;;;;;;;7.10;6.17;;;10.00;99.90;;;;;;5080519;28;21096;-72
2021/03/27 02:30:14;;;;;;;6.23;5.70;;;10.00;99.90;;;;;;5081030;28;20764;-74
2021/03/27 02:33:17;;;;;;;8.63;5.97;;;9.90;99.90;;;;;;5079462;28;20472;-75
2021/03/27 02:35:45;;;;;;;7.37;6.00;;;9.90;99.90;;;;;;5080328;28;20462;-73
2021/03/27 02:38:32;;;;;;;6.47;5.57;;;9.90;99.90;;;;;;5082065;28;20543;-72
2021/03/27 02:41:09;;;;;;;8.10;6.10;;;9.80;99.90;;;;;;5081444;28;20419;-72
2021/03/27 02:43:44;;;;;;;8.10;6.20;;;9.70;99.90;;;;;;5078941;28;20789;-74
2021/03/27 02:46:27;;;;;;;7.73;6.33;;;9.70;99.90;;;;;;5081289;28;20441;-73
2021/03/27 02:49:10;;;;;;;7.03;5.50;;;9.70;99.90;;;;;;5080577;28;20440;-75
2021/03/27 02:51:48;;;;;;;7.40;6.17;;;9.70;99.90;;;;;;5079286;28;20451;-72
2021/03/27 02:54:30;;;;;;;7.10;5.23;;;9.70;99.90;;;;;;5083202;28;21050;-72
2021/03/27 02:57:20;;;;;;;9.87;6.80;;;9.60;99.90;;;;;;5081613;28;20419;-75
2021/03/27 02:59:53;;;;;;;9.47;5.90;;;9.60;99.90;;;;;;5082089;28;20500;-73
2021/03/27 03:02:28;;;;;;;5.77;4.93;;;9.60;99.90;;;;;;5080232;28;20476;-72
2021/03/27 03:05:20;;;;;;;7.90;5.73;;;9.60;99.90;;;;;;5081511;28;21136;-71
2021/03/27 03:07:52;;;;;;;8.80;6.30;;;9.60;99.90;;;;;;5079386;28;20901;-72
2021/03/27 03:10:24;;;;;;;7.00;5.47;;;9.60;99.90;;;;;;5081321;28;20939;-72
2021/03/27 03:12:59;;;;;;;12.10;6.93;;;9.60;99.90;;;;;;5079945;28;20460;-72
2021/03/27 03:15:28;;;;;;;5.87;5.10;;;9.60;99.90;;;;;;5083133;28;20446;-72
2021/03/27 03:17:57;;;;;;;5.50;4.63;;;9.60;99.90;;;;;;5086630;28;20422;-72
2021/03/27 03:20:56;;;;;;;6.67;4.53;;;9.60;99.90;;;;;;5084864;28;20916;-72
2021/03/27 03:23:49;;;;;;;7.13;4.97;;;9.60;99.90;;;;;;5085048;28;20457;-72
2021/03/27 03:26:53;;;;;;;4.47;4.07;;;9.60;99.90;;;;;;5084036;28;20920;-72
2021/03/27 03:29:54;;;;;;;4.50;4.13;;;9.50;99.90;;;;;;5070962;28;21135;-72
2021/03/27 03:32:22;;;;;;;5.80;4.40;;;9.50;99.90;;;;;;5084293;28;20456;-72
2021/03/27 03:35:06;;;;;;;5.10;4.60;;;9.50;99.90;;;;;;5084236;28;20783;-72
2021/03/27 03:37:58;;;;;;;5.17;4.33;;;9.50;99.90;;;;;;5086112;28;20419;-73
2021/03/27 03:40:46;;;;;;;2.90;2.70;;;9.50;99.90;;;;;;5085178;28;20930;-74
2021/03/27 03:43:15;;;;;;;2.90;2.70;;;9.50;99.90;;;;;;5083055;28;20445;-72
2021/03/27 03:46:15;;;;;;;3.00;2.30;;;9.50;99.90;;;;;;5084877;28;20523;-72
2021/03/27 03:48:49;;;;;;;1.50;1.40;;;9.40;99.90;;;;;;5082295;28;21023;-72
2021/03/27 03:51:36;;;;;;;1.50;1.40;;;9.20;99.90;;;;;;5080447;28;21016;-72
2021/03/27 03:54:22;;;;;;;1.23;1.00;;;9.00;99.90;;;;;;5082270;28;20464;-72
2021/03/27 03:57:05;;;;;;;0.80;0.80;;;8.80;99.90;;;;;;5084493;28;20787;-71
2021/03/27 03:59:44;;;;;;;1.37;1.20;;;8.70;99.90;;;;;;5084958;28;20415;-72
2021/03/27 04:02:31;;;;;;;0.90;0.60;;;8.60;99.90;;;;;;5082154;28;20450;-71
2021/03/27 04:05:07;;;;;;;2.17;0.70;;;8.60;99.90;;;;;;5083283;28;20430;-71
2021/03/27 04:07:39;;;;;;;0.90;0.80;;;8.50;99.90;;;;;;5085528;28;20420;-71
2021/03/27 04:10:22;;;;;;;1.33;0.70;;;8.40;99.90;;;;;;5084415;28;20432;-71
2021/03/27 04:13:36;;;;;;;0.57;0.57;;;8.40;99.90;;;;;;5083038;28;20607;-73
2021/03/27 04:16:07;;;;;;;0.50;0.50;;;8.30;99.90;;;;;;4994006;28;20434;-71
2021/03/27 04:18:41;;;;;;;0.60;0.57;;;8.20;99.90;;;;;;4996110;28;20408;-71
2021/03/27 04:21:20;;;;;;;0.50;0.50;;;8.10;99.90;;;;;;5050239;28;20517;-72
2021/03/27 04:24:06;;;;;;;0.70;0.70;;;8.10;99.90;;;;;;5082801;28;20523;-73
2021/03/27 04:26:35;;;;;;;1.53;0.63;;;8.10;99.90;;;;;;5080885;28;20905;-71
2021/03/27 04:29:42;;;;;;;0.50;0.50;;;8.00;99.90;;;;;;5084778;28;20426;-74
2021/03/27 04:32:25;;;;;;;1.63;1.23;;;8.00;99.90;;;;;;5080537;28;20503;-72
2021/03/27 04:34:56;;;;;;;0.50;0.50;;;7.90;99.90;;;;;;5082634;28;20441;-72
2021/03/27 04:38:02;;;;;;;0.63;0.50;;;7.90;99.90;;;;;;5083575;28;20465;-72
2021/03/27 04:40:36;;;;;;;1.23;0.70;;;7.90;99.90;;;;;;5084648;28;20531;-72
2021/03/27 04:43:20;;;;;;;0.60;0.60;;;7.80;99.90;;;;;;5081484;28;20444;-71
2021/03/27 04:45:54;;;;;;;1.53;0.50;;;7.70;99.90;;;;;;5082991;28;20407;-71
2021/03/27 04:48:38;;;;;;;0.70;0.60;;;7.70;99.90;;;;;;5082671;28;20425;-73
2021/03/27 04:51:27;;;;;;;0.70;0.70;;;7.60;99.90;;;;;;5081377;28;21264;-72
2021/03/27 04:54:08;;;;;;;0.50;0.50;;;7.60;99.90;;;;;;5083265;28;20461;-71
2021/03/27 04:56:45;;;;;;;0.80;0.60;;;7.60;99.90;;;;;;5081706;28;20427;-72
2021/03/27 04:59:35;;;;;;;2.03;0.90;;;7.50;99.90;;;;;;5080693;28;20445;-72
2021/03/27 05:02:10;;;;;;;0.70;0.60;;;7.50;99.90;;;;;;5080315;28;20450;-72
2021/03/27 05:04:58;;;;;;;1.90;0.73;;;7.50;99.90;;;;;;5081681;28;20417;-71
2021/03/27 05:07:40;;;;;;;1.17;0.50;;;7.50;99.90;;;;;;5083658;28;20431;-72
2021/03/27 05:10:06;;;;;;;0.50;0.50;;;7.50;99.90;;;;;;5081204;28;20445;-73
2021/03/27 05:13:04;;;;;;;0.83;0.80;;;7.40;99.90;;;;;;5083929;28;20465;-72
2021/03/27 05:16:03;;;;;;;0.70;0.70;;;7.30;99.90;;;;;;5082613;28;20633;-72
2021/03/27 05:18:46;;;;;;;0.90;0.70;;;7.20;99.90;;;;;;5083376;28;20587;-72
2021/03/27 05:21:34;;;;;;;0.57;0.57;;;7.20;99.90;;;;;;5081360;28;20410;-72
2021/03/27 05:24:15;;;;;;;0.70;0.70;;;7.10;99.90;;;;;;5080890;28;20430;-73
2021/03/27 05:26:57;;;;;;;0.80;0.70;;;7.00;99.90;;;;;;5080365;28;20422;-72
2021/03/27 05:29:31;;;;;;;1.73;0.70;;;7.00;99.90;;;;;;5082229;28;20396;-73
2021/03/27 05:32:05;;;;;;;1.17;0.80;;;6.90;99.90;;;;;;5083036;28;20440;-75
2021/03/27 05:34:41;;;;;;;0.70;0.70;;;6.90;99.90;;;;;;5080866;28;20540;-72
2021/03/27 05:37:13;;;;;;;0.67;0.67;;;6.90;99.90;;;;;;5077414;28;20486;-71
2021/03/27 05:39:48;;;;;;;0.60;0.60;;;6.90;99.90;;;;;;5080146;28;20400;-72
2021/03/27 05:42:34;;;;;;;0.60;0.60;;;6.90;99.90;;;;;;5082798;28;20487;-72
2021/03/27 05:45:41;;;;;;;0.70;0.70;;;6.90;99.90;;;;;;5083107;28;20987;-72
2021/03/27 05:48:12;;;;;;;0.80;0.80;;;7.00;99.90;;;;;;5080597;28;20433;-72
2021/03/27 05:50:47;;;;;;;0.63;0.63;;;7.00;99.90;;;;;;5082437;28;20886;-71
2021/03/27 05:53:37;;;;;;;1.03;0.80;;;7.00;99.90;;;;;;5080371;28;20458;-72
2021/03/27 05:56:40;;;;;;;0.63;0.60;;;7.00;99.90;;;;;;5079295;28;20494;-71
2021/03/27 05:59:17;;;;;;;0.80;0.80;;;6.90;99.90;;;;;;5079942;28;20419;-71
2021/03/27 06:01:50;;;;;;;0.90;0.90;;;7.00;99.90;;;;;;5080643;28;21001;-69
2021/03/27 06:04:48;;;;;;;0.70;0.70;;;7.00;99.90;;;;;;5081761;28;20421;-70
2021/03/27 06:07:43;;;;;;;0.60;0.60;;;7.00;99.90;;;;;;5042724;28;20968;-69
2021/03/27 06:10:23;;;;;;;0.90;0.90;;;7.00;99.90;;;;;;5079328;28;20447;-69
2021/03/27 06:13:23;;;;;;;1.00;0.70;;;7.10;99.90;;;;;;5081111;28;20506;-70
2021/03/27 06:16:27;;;;;;;0.80;0.80;;;7.10;99.90;;;;;;5080867;28;20423;-70
2021/03/27 06:19:06;;;;;;;0.70;0.70;;;7.10;99.90;;;;;;5079665;28;20457;-71
2021/03/27 06:21:39;;;;;;;0.70;0.70;;;7.10;99.90;;;;;;5083978;28;20495;-70
2021/03/27 06:24:33;;;;;;;2.80;0.90;;;7.10;99.90;;;;;;5080867;28;20442;-70
2021/03/27 06:27:16;;;;;;;2.67;0.60;;;7.00;99.90;;;;;;5085259;28;20534;-70
2021/03/27 06:29:51;;;;;;;3.70;0.90;;;7.10;99.90;;;;;;5077749;28;20439;-71
2021/03/27 06:32:47;;;;;;;4.43;1.33;;;7.10;99.90;;;;;;5083029;28;20444;-70
2021/03/27 06:35:39;;;;;;;3.70;0.70;;;7.10;99.90;;;;;;5079799;28;20534;-70
2021/03/27 06:38:35;;;;;;;1.03;0.70;;;7.10;99.90;;;;;;5078190;28;20431;-71
2021/03/27 06:41:37;;;;;;;1.60;0.70;;;7.00;99.90;;;;;;5082314;28;20935;-71
2021/03/27 06:44:30;;;;;;;0.80;0.80;;;7.00;99.90;;;;;;5082736;28;20477;-71
2021/03/27 06:47:34;;;;;;;1.13;0.67;;;7.30;99.90;;;;;;5081430;28;20423;-70
2021/03/27 06:50:05;;;;;;;0.70;0.60;;;8.30;99.90;;;;;;5078517;28;20511;-70
2021/03/27 06:52:54;;;;;;;1.03;0.77;;;9.90;99.90;;;;;;5080022;28;21284;-70
2021/03/27 06:55:43;;;;;;;2.00;0.60;;;11.60;99.90;;;;;;5083519;28;20430;-72
2021/03/27 06:58:28;;;;;;;0.87;0.80;;;13.20;99.90;;;;;;5081941;28;21043;-71
2021/03/27 07:01:30;;;;;;;2.67;0.70;;;14.20;99.90;;;;;;5081364;28;20418;-72
2021/03/27 07:04:25;;;;;;;0.80;0.50;;;14.70;99.90;;;;;;5080181;28;20519;-71
2021/03/27 07:07:02;;;;;;;2.00;0.60;;;14.30;99.90;;;;;;5080602;28;20447;-70
2021/03/27 07:09:43;;;;;;;0.77;0.60;;;12.60;99.90;;;;;;5078644;28;20434;-71
2021/03/27 07:12:22;;;;;;;1.17;0.70;;;10.60;99.90;;;;;;5078550;28;20944;-71
2021/03/27 07:15:09;;;;;;;2.57;0.70;;;10.00;99.90;;;;;;5079387;28;20441;-69
2021/03/27 07:17:34;;;;;;;1.50;0.50;;;9.90;99.90;;;;;;5079748;28;20870;-71
2021/03/27 07:20:26;;;;;;;1.23;0.60;;;9.40;99.90;;;;;;5084099;28;20457;-71
2021/03/27 07:23:00;;;;;;;2.53;0.67;;;9.10;99.90;;;;;;5080236;28;20194;-71
2021/03/27 07:26:04;;;;;;;1.63;0.57;;;9.30;99.90;;;;;;5081549;28;20426;-71
2021/03/27 07:28:41;;;;;;;1.53;0.60;;;9.20;99.90;;;;;;5082070;28;20461;-71
2021/03/27 07:31:24;;;;;;;1.70;0.63;;;9.50;99.90;;;;;;5078475;28;20502;-71
2021/03/27 07:34:28;;;;;;;1.07;0.60;;;10.20;99.90;;;;;;5080459;28;20460;-71
2021/03/27 07:37:31;;;;;;;1.33;1.00;;;11.00;99.90;;;;;;5074947;28;21136;-68
2021/03/27 07:40:55;;;;;;;1.00;0.70;;;11.10;99.90;;;;;;5084287;28;20436;-68
2021/03/27 07:43:34;;;;;;;2.67;0.67;;;11.40;99.90;;;;;;5039174;28;20955;-69
2021/03/27 07:46:14;;;;;;;1.90;0.57;;;11.40;99.90;;;;;;5036785;28;20505;-69
2021/03/27 07:49:02;;;;;;;1.63;1.20;;;11.90;99.90;;;;;;5064448;28;20424;-67
2021/03/27 07:52:05;;;;;;;1.17;0.60;;;12.10;99.90;;;;;;5079282;28;20478;-67
2021/03/27 07:54:50;;;;;;;1.63;0.60;;;12.50;99.90;;;;;;5081987;28;20470;-72
2021/03/27 07:57:27;;;;;;;1.47;0.70;;;12.90;99.90;;;;;;5080479;28;21017;-67
2021/03/27 08:00:30;;;;;;;0.83;0.50;;;13.20;99.90;;;;;;5077241;28;20479;-70
2021/03/27 08:03:14;;;;;;;6.43;1.00;;;12.40;99.90;;;;;;5079593;28;20989;-71
2021/03/27 08:06:05;;;;;;;1.20;0.70;;;12.30;99.90;;;;;;5082512;28;20520;-70
2021/03/27 08:08:36;;;;;;;0.60;0.57;;;12.00;99.90;;;;;;5075229;28;20433;-70
2021/03/27 08:11:17;;;;;;;1.80;0.60;;;11.50;99.90;;;;;;5079465;28;20420;-70
2021/03/27 08:14:20;;;;;;;1.67;0.63;;;11.20;99.90;;;;;;5080700;28;20479;-70
2021/03/27 08:17:06;;;;;;;1.13;0.50;;;10.80;99.90;;;;;;5082930;28;20523;-70
2021/03/27 08:19:53;;;;;;;1.27;0.70;;;10.40;99.90;;;;;;5083875;28;20785;-71
2021/03/27 08:22:47;;;;;;;1.23;0.70;;;10.10;99.90;;;;;;5083305;28;20440;-71
2021/03/27 08:25:19;;;;;;;0.60;0.50;;;10.80;99.90;;;;;;5082255;28;20436;-71
2021/03/27 08:27:54;;;;;;;1.10;0.60;;;11.50;99.90;;;;;;5084684;28;20499;-71
2021/03/27 08:30:35;;;;;;;2.73;0.73;;;12.10;99.90;;;;;;5083912;28;20948;-71
2021/03/27 08:33:09;;;;;;;1.13;0.80;;;12.20;99.90;;;;;;5086968;28;20461;-71
2021/03/27 08:35:52;;;;;;;0.60;0.60;;;12.70;99.90;;;;;;5085985;28;20469;-71
2021/03/27 08:38:42;;;;;;;1.93;0.83;;;12.60;99.90;;;;;;5087115;28;20926;-70
2021/03/27 08:41:42;;;;;;;0.63;0.63;;;13.00;99.90;;;;;;5085484;28;20836;-68
2021/03/27 08:44:26;;;;;;;1.33;0.60;;;13.40;99.90;;;;;;5080775;28;20441;-72
2021/03/27 08:47:04;;;;;;;2.20;0.50;;;13.70;99.90;;;;;;5083285;28;21168;-72
2021/03/27 08:49:44;;;;;;;1.83;0.60;;;13.70;99.90;;;;;;5086382;28;20449;-71
2021/03/27 08:52:24;;;;;;;1.20;0.50;;;13.50;99.90;;;;;;5084270;28;20447;-70
2021/03/27 08:55:08;;;;;;;0.50;0.50;;;13.40;99.90;;;;;;5083540;28;20463;-71
2021/03/27 08:57:58;;;;;;;1.77;0.60;;;13.00;99.90;;;;;;5083378;28;20781;-71
2021/03/27 09:00:51;;;;;;;1.87;0.60;;;13.10;99.90;;;;;;5086526;28;20847;-70
2021/03/27 09:03:51;;;;;;;6.00;0.70;;;13.10;99.90;;;;;;5083890;28;20447;-72
2021/03/27 09:06:50;;;;;;;1.00;0.50;;;13.50;99.90;;;;;;5081337;28;20434;-71
2021/03/27 09:09:46;;;;;;;2.50;0.70;;;12.80;99.90;;;;;;5083310;28;20421;-71
2021/03/27 09:12:37;;;;;;;0.80;0.50;;;13.10;99.90;;;;;;5076764;28;20500;-70
2021/03/27 09:15:23;;;;;;;4.87;0.60;;;13.30;99.90;;;;;;5084019;28;20441;-71
2021/03/27 09:18:03;;;;;;;0.60;0.50;;;13.20;99.90;;;;;;5080287;28;20462;-71
2021/03/27 09:20:36;;;;;;;1.40;0.50;;;13.70;99.90;;;;;;5088440;28;20493;-70
2021/03/27 09:23:13;;;;;;;1.33;0.77;;;13.70;99.90;;;;;;5082959;28;20472;-71
2021/03/27 09:26:16;;;;;;;0.60;0.50;;;14.10;99.90;;;;;;5081044;28;20509;-71
2021/03/27 09:28:53;;;;;;;2.20;0.47;;;13.80;99.70;;;;;;5079480;28;20839;-71
2021/03/27 09:31:53;;;;;;;2.93;0.70;;;13.70;99.90;;;;;;5084780;28;20421;-71
2021/03/27 09:34:40;;;;;;;0.90;0.50;;;13.00;99.90;;;;;;5078514;28;20466;-72
2021/03/27 09:37:33;;;;;;;1.83;0.67;;;12.60;99.90;;;;;;5084313;28;20862;-71
2021/03/27 09:40:26;;;;;;;0.90;0.60;;;12.60;99.90;;;;;;5083505;28;20464;-71
2021/03/27 09:43:23;;;;;;;0.93;0.70;;;13.10;99.90;;;;;;5082059;28;20935;-72
2021/03/27 09:46:09;;;;;;;1.60;0.70;;;12.90;99.90;;;;;;5082455;28;20460;-71
2021/03/27 09:48:58;;;;;;;1.40;0.80;;;13.20;99.90;;;;;;5083611;28;20431;-71
2021/03/27 09:52:01;;;;;;;2.50;0.60;;;13.70;99.90;;;;;;5081361;28;20437;-72
2021/03/27 09:54:43;;;;;;;2.10;1.17;;;13.70;99.30;;;;;;5079563;28;20582;-70
2021/03/27 09:57:26;;;;;;;0.73;0.43;;;13.10;98.80;;;;;;5084525;28;20824;-71
2021/03/27 10:00:07;;;;;;;0.80;0.70;;;12.60;99.90;;;;;;5080404;28;20462;-72
2021/03/27 10:02:40;;;;;;;2.33;0.50;;;12.50;99.70;;;;;;5081508;28;20445;-71
2021/03/27 10:05:27;;;;;;;2.70;0.80;;;12.30;99.30;;;;;;5089768;28;20841;-71
2021/03/27 10:08:25;;;;;;;2.10;0.60;;;12.20;99.80;;;;;;5083136;28;20427;-71
2021/03/27 10:10:54;;;;;;;1.57;0.50;;;12.70;99.90;;;;;;5081403;28;20422;-71
2021/03/27 10:13:46;;;;;;;4.30;0.83;;;12.60;99.50;;;;;;5087950;28;20474;-71
2021/03/27 10:16:18;;;;;;;1.80;0.60;;;12.20;98.90;;;;;;5079295;28;20440;-72
2021/03/27 10:18:57;;;;;;;1.40;0.60;;;11.90;99.40;;;;;;5089419;28;20425;-71
2021/03/27 10:21:46;;;;;;;2.83;0.60;;;12.10;99.30;;;;;;5077568;28;20522;-71
2021/03/27 10:24:12;;;;;;;3.60;0.57;;;12.00;99.10;;;;;;5079248;28;20500;-71
2021/03/27 10:26:56;;;;;;;0.77;0.60;;;11.80;99.30;;;;;;5084297;28;20462;-71
2021/03/27 10:29:43;;;;;;;0.60;0.50;;;11.80;99.90;;;;;;5081530;28;20215;-72
2021/03/27 10:32:32;;;;;;;1.10;0.50;;;11.80;99.00;;;;;;5077878;28;20474;-70
2021/03/27 10:35:03;;;;;;;1.27;0.70;;;11.60;99.00;;;;;;5041877;28;20440;-71
2021/03/27 10:37:55;;;;;;;1.60;0.40;;;12.20;98.70;;;;;;5080869;28;20827;-71
2021/03/27 10:40:43;;;;;;;2.20;0.63;;;12.90;98.90;;;;;;5079636;28;20441;-71
2021/03/27 10:43:25;;;;;;;2.93;0.70;;;13.50;98.30;;;;;;5083118;28;20499;-71
2021/03/27 10:45:56;;;;;;;0.70;0.57;;;14.20;97.80;;;;;;5082067;28;20940;-71
2021/03/27 10:48:41;;;;;;;0.60;0.40;;;14.70;97.20;;;;;;5090951;28;20427;-71
2021/03/27 10:51:16;;;;;;;1.77;0.70;;;14.50;96.90;;;;;;5078941;28;20791;-72
2021/03/27 10:54:23;;;;;;;2.00;0.53;;;14.60;96.10;;;;;;5079731;28;20518;-71
2021/03/27 10:57:16;;;;;;;1.90;0.53;;;14.60;96.30;;;;;;5080294;28;20435;-71
2021/03/27 11:00:19;;;;;;;3.63;0.70;;;14.30;95.00;;;;;;5080844;28;20458;-71
2021/03/27 11:03:13;;;;;;;1.73;0.73;;;13.90;95.20;;;;;;5034780;28;20939;-71
2021/03/27 11:05:57;;;;;;;2.83;0.70;;;13.20;95.20;;;;;;5079526;28;20414;-70
2021/03/27 11:09:00;;;;;;;2.03;0.70;;;12.50;96.20;;;;;;5080945;28;20466;-71
2021/03/27 11:12:07;;;;;;;0.60;0.60;;;12.20;96.10;;;;;;5080148;28;20479;-71
2021/03/27 11:14:53;;;;;;;3.23;0.63;;;12.50;97.20;;;;;;5003192;28;20628;-71
2021/03/27 11:17:40;;;;;;;2.87;0.50;;;12.30;97.00;;;;;;5080949;28;20891;-72
2021/03/27 11:20:22;;;;;;;2.40;0.80;;;12.40;97.80;;;;;;5079001;28;20421;-71
2021/03/27 11:23:28;;;;;;;1.10;0.70;;;13.00;97.50;;;;;;5078793;28;20446;-70
2021/03/27 11:26:25;;;;;;;0.83;0.70;;;13.50;96.70;;;;;;5083076;28;20434;-69
2021/03/27 11:29:28;;;;;;;0.80;0.67;;;14.30;96.60;;;;;;5081088;28;20431;-69
2021/03/27 11:32:07;;;;;;;5.30;0.70;;;14.70;96.70;;;;;;5080710;28;20783;-70
2021/03/27 11:34:58;;;;;;;3.40;1.00;;;14.70;95.00;;;;;;5074886;28;20557;-67
2021/03/27 11:38:18;;;;;;;1.27;0.90;;;14.10;94.10;;;;;;5084316;28;20434;-68
2021/03/27 11:40:57;;;;;;;1.00;0.70;;;13.70;96.00;;;;;;5026618;28;20430;-73
2021/03/27 11:43:31;;;;;;;2.10;0.63;;;14.00;96.30;;;;;;5080922;28;20804;-72
2021/03/27 11:46:08;;;;;;;1.03;0.70;;;14.30;95.90;;;;;;5083166;28;20974;-71
2021/03/27 11:48:43;;;;;;;4.10;0.93;;;14.60;95.30;;;;;;5083141;28;20508;-71
2021/03/27 11:51:24;;;;;;;1.40;0.80;;;14.30;95.00;;;;;;5082928;28;20418;-72
2021/03/27 11:54:01;;;;;;;1.27;0.60;;;14.30;95.00;;;;;;5080991;28;20466;-72
2021/03/27 11:56:58;;;;;;;1.77;0.60;;;14.40;94.00;;;;;;5085122;28;20411;-71
2021/03/27 12:03:09;;;;;;;2.03;0.80;;;14.40;94.70;;;;;;5063929;28;20453;-71
2021/03/27 12:05:56;;;;;;;2.30;0.70;;;13.80;94.60;;;;;;5085697;28;20436;-70
2021/03/27 12:08:34;;;;;;;3.90;1.10;;;14.00;94.90;;;;;;5081840;28;20437;-71
2021/03/27 12:11:44;;;;;;;2.00;0.60;;;14.00;94.80;;;;;;5087779;28;20421;-70
2021/03/27 12:14:15;;;;;;;3.70;0.90;;;14.20;95.30;;;;;;5059243;28;20481;-71
2021/03/27 12:17:11;;;;;;;1.07;0.40;;;14.10;93.70;;;;;;5083252;28;20434;-70
2021/03/27 12:19:48;;;;;;;3.57;0.80;;;14.00;93.80;;;;;;5083905;28;20476;-70
2021/03/27 12:22:38;;;;;;;3.27;0.93;;;14.20;95.00;;;;;;5080929;28;20445;-71
2021/03/27 12:25:23;;;;;;;6.33;1.17;;;13.90;95.20;;;;;;5100356;28;20440;-70
2021/03/27 12:28:01;;;;;;;3.03;0.70;;;13.70;95.10;;;;;;5082791;28;20415;-72
2021/03/27 12:30:41;;;;;;;2.20;0.50;;;13.50;93.60;;;;;;5082558;28;20422;-70
2021/03/27 12:33:09;;;;;;;3.43;0.70;;;13.20;95.20;;;;;;5083500;28;20487;-71
2021/03/27 12:35:48;;;;;;;1.87;0.70;;;12.80;94.20;;;;;;5081289;28;20423;-68
2021/03/27 12:38:51;;;;;;;2.40;1.00;;;13.10;96.30;;;;;;5081878;28;20421;-67
2021/03/27 12:41:25;;;;;;;3.03;0.70;;;13.40;94.80;;;;;;5082769;28;20449;-70
2021/03/27 12:43:55;;;;;;;4.80;0.60;;;13.60;94.60;;;;;;5082940;28;20411;-70
2021/03/27 12:46:42;;;;;;;2.10;0.87;;;14.00;95.20;;;;;;5079095;28;20434;-71
2021/03/27 12:49:28;;;;;;;1.67;0.77;;;14.20;95.60;;;;;;5081418;28;20430;-71
2021/03/27 12:52:24;;;;;;;5.43;0.93;;;14.20;94.80;;;;;;5081747;28;20484;-70
2021/03/27 12:55:20;;;;;;;1.13;0.53;;;14.30;94.50;;;;;;5082853;28;20419;-72
2021/03/27 12:58:10;;;;;;;0.80;0.60;;;14.20;93.90;;;;;;5083117;28;20952;-71
2021/03/27 13:00:42;;;;;;;2.70;0.70;;;14.10;93.90;;;;;;5079523;28;20936;-70
2021/03/27 13:03:34;;;;;;;1.77;0.90;;;14.00;94.10;;;;;;5083775;28;20223;-71
2021/03/27 13:06:36;;;;;;;1.17;0.70;;;13.80;93.80;;;;;;5079186;28;20418;-71
2021/03/27 13:09:39;;;;;;;4.30;0.60;;;13.80;94.80;;;;;;5072963;28;20561;-72
2021/03/27 13:12:19;;;;;;;1.73;0.80;;;13.70;93.90;;;;;;5046242;28;20507;-70
2021/03/27 13:14:53;;;;;;;3.00;0.80;;;13.40;94.10;;;;;;5080574;28;20464;-71
2021/03/27 13:17:21;;;;;;;1.40;0.70;;;13.40;94.70;;;;;;5082049;28;20436;-70
2021/03/27 13:20:22;;;;;;;2.67;0.97;;;13.30;94.30;;;;;;5080937;28;21007;-72
2021/03/27 13:23:08;;;;;;;3.13;0.80;;;13.40;93.20;;;;;;5038113;28;20459;-71
2021/03/27 13:25:51;;;;;;;5.33;0.80;;;13.60;93.60;;;;;;5080926;28;20952;-72
2021/03/27 13:28:30;;;;;;;0.87;0.60;;;13.30;93.80;;;;;;5081601;28;20410;-70
2021/03/27 13:31:12;;;;;;;1.17;0.70;;;13.00;93.80;;;;;;5080788;28;20553;-71
2021/03/27 13:33:46;;;;;;;1.70;0.70;;;12.80;94.10;;;;;;5076289;28;20454;-71
2021/03/27 13:36:25;;;;;;;0.90;0.60;;;12.40;94.00;;;;;;5081845;28;20433;-71
2021/03/27 13:38:56;;;;;;;1.70;0.70;;;12.10;94.10;;;;;;5079618;28;20410;-72
2021/03/27 13:42:06;;;;;;;3.47;0.80;;;12.20;94.60;;;;;;5080514;28;20426;-72
2021/03/27 13:44:41;;;;;;;4.20;0.90;;;12.60;95.20;;;;;;5083644;28;20855;-71
2021/03/27 13:47:30;;;;;;;1.57;0.60;;;12.80;95.20;;;;;;5079196;28;20482;-71
2021/03/27 13:50:05;;;;;;;1.50;1.00;;;12.90;95.60;;;;;;5081946;28;20431;-71
2021/03/27 13:52:35;;;;;;;2.30;0.90;;;12.80;94.50;;;;;;5079652;28;20448;-71
2021/03/27 13:55:16;;;;;;;1.50;0.70;;;12.80;95.50;;;;;;5080471;28;20484;-71
2021/03/27 13:57:48;;;;;;;4.03;0.93;;;12.80;95.50;;;;;;5079850;28;20422;-71
2021/03/27 14:00:28;;;;;;;6.53;0.77;;;12.70;95.00;;;;;;5082867;28;20873;-70
2021/03/27 14:03:21;;;;;;;1.83;0.83;;;12.70;94.60;;;;;;5081461;28;20544;-72
2021/03/27 14:06:14;;;;;;;2.93;0.90;;;12.60;95.00;;;;;;5081467;28;20434;-71
2021/03/27 14:09:06;;;;;;;0.90;0.80;;;12.40;95.20;;;;;;5079787;28;20521;-70
2021/03/27 14:11:44;;;;;;;1.83;0.80;;;12.50;94.40;;;;;;5082768;28;20485;-72
2021/03/27 14:14:17;;;;;;;0.70;0.67;;;12.40;93.80;;;;;;5079437;28;20994;-71
2021/03/27 14:16:54;;;;;;;2.73;0.70;;;12.50;94.20;;;;;;5081772;28;20430;-72
2021/03/27 14:19:52;;;;;;;2.87;0.90;;;12.50;94.80;;;;;;5079703;28;20453;-71